Darstellungsparameter: Aktuell verwendete Einstellungen:
Skalierung der Graphiken ... ?
xyx+y,   Skalierungsfaktor:      Skalierung: Modus: x, Faktor: 1
Darstellungszeitraum ... ?
Vom - - bis: - -   Zeitraum: 13.02.2019 - 13.02.2019
Min/Max/Avg-Anzeige ... ?
Zeige MMA aktuell
Zeige MMA Monat
Zeige MMA alles
Zeige --A aktuell
Zeige --A Monat
Zeige --A alles
Keine MMA-Anzeige
MMA:
Keine MMA-Graphiken
MMA-Basis: 13.02.2019 - 13.02.2019
Quicknavigation für Darstellung... ?
Tage:      1T, 2T, 3T, 5T -1T -2T -3T -5T +1T +2T +3T +5T
Wochen: 1W, 2W, 3W -1W -2W -3W +1W +2W +3W
Monate: 1M, 3M, 6M -1M -3M -6M +1M +3M +6M
Jahre:    1J, 3J, 5J, 10J -1J -3J -5J -10J +1J +3J +5J +10J
Nutze für die Darstellung ... ?
Originaldaten oder Mittelwerte auf ...
Stundenbasis Tagesbasis Wochenbasis
Monatsbasis Jahresbasis      Datenbasis: Original-Daten
Darstellen als:
Statistik (Auto) Statistik J:M      Darstellung:
Zur Graphik,    zurück zur Übersicht aller Sensoren.
 
Tabellarische Datenbersicht: ?
 
Sensor: Nr:Datum:Temp:Feuchte:Taupunkt:
Aussen-T/F 1 13-02-2019 00:00:00 1.4 C 93 % 0.4 C
2 13-02-2019 00:05:00 1.4 C 93 % 0.4 C
3 13-02-2019 00:10:00 1.3 C 93 % 0.3 C
4 13-02-2019 00:15:00 1.3 C 93 % 0.3 C
5 13-02-2019 00:20:00 1.3 C 93 % 0.3 C
6 13-02-2019 00:25:00 1.2 C 93 % 0.2 C
7 13-02-2019 00:30:00 1.2 C 93 % 0.2 C
8 13-02-2019 00:35:00 1.2 C 93 % 0.2 C
9 13-02-2019 00:40:00 1.2 C 93 % 0.2 C
10 13-02-2019 00:45:00 1.2 C 93 % 0.2 C
11 13-02-2019 00:50:00 1.2 C 93 % 0.2 C
12 13-02-2019 00:55:00 1.1 C 93 % 0.1 C
13 13-02-2019 01:00:00 0.9 C 93 % -0.1 C
14 13-02-2019 01:05:00 1 C 94 % 0.15 C
15 13-02-2019 01:10:00 0.9 C 93 % -0.1 C
16 13-02-2019 01:15:00 0.9 C 93 % -0.1 C
17 13-02-2019 01:20:00 0.8 C 93 % -0.2 C
18 13-02-2019 01:25:00 0.8 C 93 % -0.2 C
19 13-02-2019 01:30:00 0.8 C 93 % -0.2 C
20 13-02-2019 01:35:00 0.9 C 94 % 0.05 C
21 13-02-2019 01:40:00 1 C 94 % 0.15 C
22 13-02-2019 01:45:00 0.9 C 93 % -0.1 C
23 13-02-2019 01:50:00 0.8 C 93 % -0.2 C
24 13-02-2019 01:55:00 0.6 C 93 % -0.4 C
25 13-02-2019 02:00:00 0.5 C 93 % -0.5 C
Sensor: Nr:Datum:Temp:Feuchte:Taupunkt:
Aussen-T/F 26 13-02-2019 02:05:00 0.3 C 93 % -0.7 C
27 13-02-2019 02:10:00 0.2 C 93 % -0.79 C
28 13-02-2019 02:15:00 0.2 C 93 % -0.79 C
29 13-02-2019 02:20:00 0.1 C 93 % -0.89 C
30 13-02-2019 02:25:00 0.1 C 93 % -0.89 C
31 13-02-2019 02:30:00 0.1 C 93 % -0.89 C
32 13-02-2019 02:35:00 0 C 94 % -0.85 C
33 13-02-2019 02:40:00 0.1 C 94 % -0.75 C
34 13-02-2019 02:45:00 0 C 94 % -0.85 C
35 13-02-2019 02:50:00 0 C 94 % -0.85 C
36 13-02-2019 02:55:00 -0.1 C 94 % -0.95 C
37 13-02-2019 03:00:00 -0.2 C 94 % -1.05 C
38 13-02-2019 03:05:00 -0.2 C 94 % -1.05 C
39 13-02-2019 03:10:00 -0.3 C 94 % -1.15 C
40 13-02-2019 03:15:00 -0.3 C 94 % -1.15 C
41 13-02-2019 03:20:00 -0.3 C 94 % -1.15 C
42 13-02-2019 03:25:00 -0.4 C 94 % -1.25 C
43 13-02-2019 03:30:00 -0.4 C 94 % -1.25 C
44 13-02-2019 03:35:00 -0.4 C 94 % -1.25 C
45 13-02-2019 03:40:00 -0.4 C 94 % -1.25 C
46 13-02-2019 03:45:00 -0.3 C 94 % -1.15 C
47 13-02-2019 03:50:00 -0.3 C 94 % -1.15 C
48 13-02-2019 03:55:00 -0.3 C 94 % -1.15 C
49 13-02-2019 04:00:00 -0.3 C 94 % -1.15 C
50 13-02-2019 04:05:00 -0.4 C 94 % -1.25 C
Sensor: Nr:Datum:Temp:Feuchte:Taupunkt:
Aussen-T/F 51 13-02-2019 04:10:00 -0.4 C 94 % -1.25 C
52 13-02-2019 04:15:00 -0.4 C 94 % -1.25 C
53 13-02-2019 04:20:00 -0.4 C 95 % -1.1 C
54 13-02-2019 04:25:00 -0.4 C 94 % -1.25 C
55 13-02-2019 04:30:00 -0.3 C 95 % -1 C
56 13-02-2019 04:35:00 -0.3 C 95 % -1 C
57 13-02-2019 04:40:00 -0.3 C 95 % -1 C
58 13-02-2019 04:45:00 -0.3 C 95 % -1 C
59 13-02-2019 04:50:00 -0.2 C 95 % -0.9 C
60 13-02-2019 04:55:00 -0.3 C 95 % -1 C
61 13-02-2019 05:00:00 -0.3 C 95 % -1 C
62 13-02-2019 05:05:00 -0.3 C 95 % -1 C
63 13-02-2019 05:10:00 -0.3 C 95 % -1 C
64 13-02-2019 05:15:00 -0.3 C 95 % -1 C
65 13-02-2019 05:20:00 -0.4 C 95 % -1.1 C
66 13-02-2019 05:25:00 -0.5 C 95 % -1.2 C
67 13-02-2019 05:30:00 -0.5 C 95 % -1.2 C
68 13-02-2019 05:35:00 -0.6 C 95 % -1.3 C
69 13-02-2019 05:40:00 -0.6 C 95 % -1.3 C
70 13-02-2019 05:45:00 -0.6 C 95 % -1.3 C
71 13-02-2019 05:50:00 -0.6 C 95 % -1.3 C
72 13-02-2019 05:55:00 -0.6 C 95 % -1.3 C
73 13-02-2019 06:00:00 -0.6 C 95 % -1.3 C
74 13-02-2019 06:05:00 -0.6 C 95 % -1.3 C
75 13-02-2019 06:10:00 -0.5 C 95 % -1.2 C
Sensor: Nr:Datum:Temp:Feuchte:Taupunkt:
Aussen-T/F 76 13-02-2019 06:15:00 -0.5 C 95 % -1.2 C
77 13-02-2019 06:20:00 -0.6 C 95 % -1.3 C
78 13-02-2019 06:25:00 -0.6 C 95 % -1.3 C
79 13-02-2019 06:30:00 -0.5 C 95 % -1.2 C
80 13-02-2019 06:35:00 -0.5 C 95 % -1.2 C
81 13-02-2019 06:40:00 -0.4 C 95 % -1.1 C
82 13-02-2019 06:45:00 -0.3 C 95 % -1 C
83 13-02-2019 06:50:00 -0.2 C 96 % -0.76 C
84 13-02-2019 06:55:00 -0.1 C 96 % -0.66 C
85 13-02-2019 07:00:00 0 C 96 % -0.56 C
86 13-02-2019 07:05:00 0.1 C 96 % -0.46 C
87 13-02-2019 07:10:00 0.1 C 96 % -0.46 C
88 13-02-2019 07:15:00 0.2 C 96 % -0.36 C
89 13-02-2019 07:20:00 0.3 C 96 % -0.26 C
90 13-02-2019 07:25:00 0.3 C 96 % -0.26 C
91 13-02-2019 07:30:00 0.3 C 96 % -0.26 C
92 13-02-2019 07:35:00 0.3 C 96 % -0.26 C
93 13-02-2019 07:40:00 0.4 C 96 % -0.16 C
94 13-02-2019 07:45:00 0.4 C 96 % -0.16 C
95 13-02-2019 07:50:00 0.4 C 96 % -0.16 C
96 13-02-2019 07:55:00 0.4 C 96 % -0.16 C
97 13-02-2019 08:00:00 0.5 C 96 % -0.06 C
98 13-02-2019 08:05:00 0.5 C 96 % -0.06 C
99 13-02-2019 08:10:00 0.6 C 96 % 0.04 C
100 13-02-2019 08:15:00 0.6 C 96 % 0.04 C
Sensor: Nr:Datum:Temp:Feuchte:Taupunkt:
Aussen-T/F 101 13-02-2019 08:20:00 0.6 C 96 % 0.04 C
102 13-02-2019 08:25:00 0.7 C 96 % 0.14 C
103 13-02-2019 08:30:00 0.7 C 96 % 0.14 C
104 13-02-2019 08:35:00 0.7 C 96 % 0.14 C
105 13-02-2019 08:40:00 0.7 C 95 % -0.01 C
106 13-02-2019 08:45:00 0.8 C 95 % 0.09 C
107 13-02-2019 08:50:00 0.8 C 95 % 0.09 C
108 13-02-2019 08:55:00 0.8 C 95 % 0.09 C
109 13-02-2019 09:00:00 0.9 C 95 % 0.19 C
110 13-02-2019 09:05:00 0.9 C 96 % 0.34 C
111 13-02-2019 09:10:00 0.9 C 95 % 0.19 C
112 13-02-2019 09:15:00 0.9 C 95 % 0.19 C
113 13-02-2019 09:20:00 1 C 95 % 0.29 C
114 13-02-2019 09:25:00 1 C 95 % 0.29 C
115 13-02-2019 09:30:00 1 C 95 % 0.29 C
116 13-02-2019 09:35:00 1 C 95 % 0.29 C
117 13-02-2019 09:40:00 1.1 C 95 % 0.39 C
118 13-02-2019 09:45:00 1.1 C 95 % 0.39 C
119 13-02-2019 09:50:00 1.1 C 95 % 0.39 C
120 13-02-2019 09:55:00 1.2 C 95 % 0.49 C
121 13-02-2019 10:00:00 1.3 C 95 % 0.59 C
122 13-02-2019 10:05:00 1.3 C 94 % 0.44 C
123 13-02-2019 10:10:00 1.3 C 94 % 0.44 C
124 13-02-2019 10:15:00 1.4 C 94 % 0.54 C
125 13-02-2019 10:20:00 1.5 C 94 % 0.64 C
Sensor: Nr:Datum:Temp:Feuchte:Taupunkt:
Aussen-T/F 126 13-02-2019 10:25:00 1.6 C 94 % 0.74 C
127 13-02-2019 10:30:00 1.7 C 94 % 0.84 C
128 13-02-2019 10:35:00 1.7 C 93 % 0.69 C
129 13-02-2019 10:40:00 1.8 C 93 % 0.79 C
130 13-02-2019 10:45:00 1.8 C 93 % 0.79 C
131 13-02-2019 10:50:00 1.9 C 93 % 0.89 C
132 13-02-2019 10:55:00 2 C 93 % 0.99 C
133 13-02-2019 11:00:00 2.1 C 93 % 1.09 C
134 13-02-2019 11:05:00 2.2 C 92 % 1.04 C
135 13-02-2019 11:10:00 2.2 C 92 % 1.04 C
136 13-02-2019 11:15:00 2.3 C 91 % 0.99 C
137 13-02-2019 11:20:00 2.3 C 91 % 0.99 C
138 13-02-2019 11:25:00 2.3 C 91 % 0.99 C
139 13-02-2019 11:30:00 2.3 C 91 % 0.99 C
140 13-02-2019 11:35:00 2.3 C 91 % 0.99 C
141 13-02-2019 11:40:00 2.4 C 91 % 1.08 C
142 13-02-2019 11:45:00 2.4 C 91 % 1.08 C
143 13-02-2019 11:50:00 2.5 C 91 % 1.18 C
144 13-02-2019 11:55:00 2.6 C 91 % 1.28 C
145 13-02-2019 12:00:00 2.7 C 91 % 1.38 C
146 13-02-2019 12:05:00 2.8 C 91 % 1.48 C
147 13-02-2019 12:10:00 2.9 C 91 % 1.58 C
148 13-02-2019 12:15:00 3.1 C 91 % 1.78 C
149 13-02-2019 12:20:00 3.3 C 91 % 1.98 C
150 13-02-2019 12:25:00 3.5 C 90 % 2.02 C
Sensor: Nr:Datum:Temp:Feuchte:Taupunkt:
Aussen-T/F 151 13-02-2019 12:30:00 3.7 C 90 % 2.22 C
152 13-02-2019 12:35:00 3.9 C 89 % 2.26 C
153 13-02-2019 12:40:00 4.1 C 88 % 2.3 C
154 13-02-2019 12:45:00 4.3 C 87 % 2.33 C
155 13-02-2019 12:50:00 4.3 C 86 % 2.17 C
156 13-02-2019 12:55:00 4.4 C 86 % 2.27 C
157 13-02-2019 13:00:00 4.6 C 86 % 2.47 C
158 13-02-2019 13:05:00 4.6 C 85 % 2.3 C
159 13-02-2019 13:10:00 4.7 C 86 % 2.56 C
160 13-02-2019 13:15:00 4.8 C 85 % 2.5 C
161 13-02-2019 13:20:00 4.8 C 85 % 2.5 C
162 13-02-2019 13:25:00 4.9 C 85 % 2.6 C
163 13-02-2019 13:30:00 4.9 C 84 % 2.43 C
164 13-02-2019 13:35:00 4.9 C 84 % 2.43 C
165 13-02-2019 13:40:00 5 C 84 % 2.53 C
166 13-02-2019 13:45:00 5.1 C 84 % 2.63 C
167 13-02-2019 13:50:00 5.2 C 84 % 2.72 C
168 13-02-2019 13:55:00 5.2 C 84 % 2.72 C
169 13-02-2019 14:00:00 5.2 C 83 % 2.56 C
170 13-02-2019 14:05:00 5.3 C 84 % 2.82 C
171 13-02-2019 14:10:00 5.3 C 83 % 2.65 C
172 13-02-2019 14:15:00 5.4 C 83 % 2.75 C
173 13-02-2019 14:20:00 5.4 C 83 % 2.75 C
174 13-02-2019 14:25:00 5.4 C 83 % 2.75 C
175 13-02-2019 14:30:00 5.5 C 83 % 2.85 C
Sensor: Nr:Datum:Temp:Feuchte:Taupunkt:
Aussen-T/F 176 13-02-2019 14:35:00 5.5 C 83 % 2.85 C
177 13-02-2019 14:40:00 5.5 C 83 % 2.85 C
178 13-02-2019 14:45:00 5.5 C 83 % 2.85 C
179 13-02-2019 14:50:00 5.5 C 83 % 2.85 C
180 13-02-2019 14:55:00 5.5 C 83 % 2.85 C
181 13-02-2019 15:00:00 5.5 C 83 % 2.85 C
182 13-02-2019 15:05:00 5.5 C 83 % 2.85 C
183 13-02-2019 15:10:00 5.5 C 83 % 2.85 C
184 13-02-2019 15:15:00 5.5 C 83 % 2.85 C
185 13-02-2019 15:20:00 5.5 C 83 % 2.85 C
186 13-02-2019 15:25:00 5.6 C 83 % 2.95 C
187 13-02-2019 15:30:00 5.6 C 83 % 2.95 C
188 13-02-2019 15:35:00 5.6 C 83 % 2.95 C
189 13-02-2019 15:40:00 5.7 C 83 % 3.04 C
190 13-02-2019 15:45:00 5.7 C 83 % 3.04 C
191 13-02-2019 15:50:00 5.7 C 84 % 3.21 C
192 13-02-2019 15:55:00 5.8 C 84 % 3.31 C
193 13-02-2019 16:00:00 5.8 C 84 % 3.31 C
194 13-02-2019 16:05:00 5.8 C 84 % 3.31 C
195 13-02-2019 16:10:00 5.7 C 84 % 3.21 C
196 13-02-2019 16:15:00 5.7 C 85 % 3.38 C
197 13-02-2019 16:20:00 5.6 C 85 % 3.28 C
198 13-02-2019 16:25:00 5.6 C 85 % 3.28 C
199 13-02-2019 16:30:00 5.5 C 86 % 3.35 C
200 13-02-2019 16:35:00 5.4 C 86 % 3.25 C
Sensor: Nr:Datum:Temp:Feuchte:Taupunkt:
Aussen-T/F 201 13-02-2019 16:40:00 5.4 C 87 % 3.41 C
202 13-02-2019 16:45:00 5.4 C 87 % 3.41 C
203 13-02-2019 16:50:00 5.3 C 88 % 3.48 C
204 13-02-2019 16:55:00 5.3 C 88 % 3.48 C
205 13-02-2019 17:00:00 5.3 C 88 % 3.48 C
206 13-02-2019 17:05:00 5.2 C 88 % 3.38 C
207 13-02-2019 17:10:00 5.2 C 88 % 3.38 C
208 13-02-2019 17:15:00 5.1 C 88 % 3.28 C
209 13-02-2019 17:20:00 4.9 C 88 % 3.08 C
210 13-02-2019 17:25:00 4.8 C 88 % 2.99 C
211 13-02-2019 17:30:00 4.7 C 88 % 2.89 C
212 13-02-2019 17:35:00 4.5 C 89 % 2.85 C
213 13-02-2019 17:40:00 4.3 C 89 % 2.65 C
214 13-02-2019 17:45:00 4.2 C 89 % 2.55 C
215 13-02-2019 17:50:00 4.1 C 90 % 2.61 C
216 13-02-2019 17:55:00 4 C 89 % 2.36 C
217 13-02-2019 18:00:00 3.8 C 90 % 2.31 C
218 13-02-2019 18:05:00 3.7 C 90 % 2.22 C
219 13-02-2019 18:10:00 3.6 C 90 % 2.12 C
220 13-02-2019 18:15:00 3.4 C 90 % 1.92 C
221 13-02-2019 18:20:00 3.3 C 90 % 1.82 C
222 13-02-2019 18:25:00 3.3 C 91 % 1.98 C
223 13-02-2019 18:30:00 3.2 C 91 % 1.88 C
224 13-02-2019 18:35:00 3.1 C 91 % 1.78 C
225 13-02-2019 18:40:00 2.9 C 90 % 1.43 C
Sensor: Nr:Datum:Temp:Feuchte:Taupunkt:
Aussen-T/F 226 13-02-2019 18:45:00 2.8 C 91 % 1.48 C
227 13-02-2019 18:50:00 2.7 C 91 % 1.38 C
228 13-02-2019 18:55:00 2.7 C 91 % 1.38 C
229 13-02-2019 19:00:00 2.6 C 91 % 1.28 C
230 13-02-2019 19:05:00 2.4 C 91 % 1.08 C
231 13-02-2019 19:10:00 2.3 C 91 % 0.99 C
232 13-02-2019 19:15:00 2.1 C 91 % 0.79 C
233 13-02-2019 19:20:00 1.9 C 91 % 0.59 C
234 13-02-2019 19:25:00 1.7 C 91 % 0.39 C
235 13-02-2019 19:30:00 1.6 C 92 % 0.44 C
236 13-02-2019 19:35:00 1.6 C 92 % 0.44 C
237 13-02-2019 19:40:00 1.6 C 93 % 0.59 C
238 13-02-2019 19:45:00 1.6 C 93 % 0.59 C
239 13-02-2019 19:50:00 1.4 C 92 % 0.25 C
240 13-02-2019 19:55:00 1.4 C 92 % 0.25 C
241 13-02-2019 20:00:00 1.4 C 93 % 0.4 C
242 13-02-2019 20:05:00 1.3 C 93 % 0.3 C
243 13-02-2019 20:10:00 1.3 C 93 % 0.3 C
244 13-02-2019 20:15:00 1.3 C 93 % 0.3 C
245 13-02-2019 20:20:00 1.2 C 93 % 0.2 C
246 13-02-2019 20:25:00 1.2 C 93 % 0.2 C
247 13-02-2019 20:30:00 1.2 C 93 % 0.2 C
248 13-02-2019 20:35:00 1.1 C 93 % 0.1 C
249 13-02-2019 20:40:00 1.1 C 93 % 0.1 C
250 13-02-2019 20:45:00 1 C 93 % 0 C
Sensor: Nr:Datum:Temp:Feuchte:Taupunkt:
Aussen-T/F 251 13-02-2019 20:50:00 0.9 C 93 % -0.1 C
252 13-02-2019 20:55:00 0.8 C 92 % -0.35 C
253 13-02-2019 21:00:00 0.8 C 93 % -0.2 C
254 13-02-2019 21:05:00 0.7 C 93 % -0.3 C
255 13-02-2019 21:10:00 0.8 C 93 % -0.2 C
256 13-02-2019 21:15:00 0.9 C 93 % -0.1 C
257 13-02-2019 21:20:00 0.8 C 92 % -0.35 C
258 13-02-2019 21:25:00 0.7 C 92 % -0.45 C
259 13-02-2019 21:30:00 0.5 C 92 % -0.65 C
260 13-02-2019 21:35:00 0.4 C 92 % -0.74 C
261 13-02-2019 21:40:00 0.4 C 92 % -0.74 C
262 13-02-2019 21:45:00 0.3 C 92 % -0.84 C
263 13-02-2019 21:50:00 0.2 C 92 % -0.94 C
264 13-02-2019 21:55:00 0.2 C 92 % -0.94 C
265 13-02-2019 22:00:00 0.2 C 93 % -0.79 C
266 13-02-2019 22:05:00 0.2 C 93 % -0.79 C
267 13-02-2019 22:10:00 0.2 C 93 % -0.79 C
268 13-02-2019 22:15:00 0.1 C 93 % -0.89 C
269 13-02-2019 22:20:00 0.2 C 93 % -0.79 C
270 13-02-2019 22:25:00 0.2 C 93 % -0.79 C
271 13-02-2019 22:30:00 0.3 C 93 % -0.7 C
272 13-02-2019 22:35:00 0.2 C 93 % -0.79 C
273 13-02-2019 22:40:00 0.1 C 93 % -0.89 C
274 13-02-2019 22:45:00 0 C 93 % -0.99 C
275 13-02-2019 22:50:00 -0.1 C 93 % -1.09 C
Sensor: Nr:Datum:Temp:Feuchte:Taupunkt:
Aussen-T/F 276 13-02-2019 22:55:00 -0.1 C 93 % -1.09 C
277 13-02-2019 23:00:00 -0.1 C 93 % -1.09 C
278 13-02-2019 23:05:00 -0.2 C 93 % -1.19 C
279 13-02-2019 23:10:00 -0.3 C 93 % -1.29 C
280 13-02-2019 23:15:00 -0.3 C 93 % -1.29 C
281 13-02-2019 23:20:00 -0.3 C 93 % -1.29 C
282 13-02-2019 23:25:00 -0.4 C 93 % -1.39 C
283 13-02-2019 23:30:00 -0.6 C 93 % -1.59 C
284 13-02-2019 23:35:00 -0.6 C 93 % -1.59 C
285 13-02-2019 23:40:00 -0.6 C 93 % -1.59 C
286 13-02-2019 23:45:00 -0.6 C 93 % -1.59 C
287 13-02-2019 23:50:00 -0.7 C 93 % -1.69 C
288 13-02-2019 23:55:00 -0.7 C 93 % -1.69 C

Legende:
   Min
   Max


Maximal/Minimal-Werte vom 13.02.2019 - 13.02.2019

Sensor Min Max Avg
Temp
(Aussen-T/F)
-0.7 °C
13-02-2019  23:50:00
5.8 °C
13-02-2019  15:55:00
1.78 °C
Feuchte
(Aussen-T/F)
83 %
13-02-2019  14:00:00
96 %
13-02-2019  06:50:00
91.58 %
Taupunkt
(Aussen-T/F)
-1.69 C
13-02-2019  23:50:00
3.48 C
13-02-2019  16:50:00
0.54 C

Die Daten stammen von einer Davis Vantage Pro 2 Wetter-Station und werden unter Linux mit der Software wview2wettercgi und aufbereitet. Alle Angaben erfolgen ohne Gewähr für ihre Vollständigkeit oder Richtigkeit.
Kontakt: Rainer Krienke krienke@uni-koblenz.de . Meine Webseiten an der Uni Koblenz oder privat.
Version: $Revision: 0.78 $